5CO2 weather

Mc Kee Medical Center Heliport
Loveland, Colorado, United States

Public forecast

Using degrees Fahrenheit for public forecast. Weather courtesy of forecast.io.

METAR (pilot weather report)

Closest report is Northern Colorado Regional Airport, 3.4 nm (6.3 km) NNE. Retrieved 2019/08/22 08:03 UTC (1 minute ago):

KFNL 220803Z AUTO 02007KT 10SM OVC012 19/16 A3015 RMK AO2

TAF (pilot weather forecast)

Closest forecast is Rocky Mountain Metropolitan Airport, 29.9 nm (55.3 km) S. Retrieved 2019/08/22 06:39 UTC (1 hour ago):

TAF KBJC 220536Z 2206/2306 VRB04KT P6SM FEW120 SCT220 FM220700 31008KT P6SM FEW020 SCT080 SCT150 FM221400 VRB05KT P6SM FEW220 FM221700 08008KT P6SM SCT100 FM221900 09008KT P6SM SCT080 BKN200 PROB30 2222/2224 VRB20G35KT -TSRA BKN060CB